sensor_id;sensor_type;location;lat;lon;timestamp;temperature;humidity
22069;DHT22;13887;57.196;-2.100;2023-03-22T00:01:16;9.94;89.41
22069;DHT22;13887;57.196;-2.100;2023-03-22T00:03:46;9.95;89.42
22069;DHT22;13887;57.196;-2.100;2023-03-22T00:06:14;9.94;89.43
22069;DHT22;13887;57.196;-2.100;2023-03-22T00:08:42;9.95;89.50
22069;DHT22;13887;57.196;-2.100;2023-03-22T00:11:11;9.95;89.44
22069;DHT22;13887;57.196;-2.100;2023-03-22T00:13:38;9.96;89.37
22069;DHT22;13887;57.196;-2.100;2023-03-22T00:16:09;9.95;89.39
22069;DHT22;13887;57.196;-2.100;2023-03-22T00:18:36;9.95;89.41
22069;DHT22;13887;57.196;-2.100;2023-03-22T00:21:04;9.97;89.30
22069;DHT22;13887;57.196;-2.100;2023-03-22T00:23:31;9.97;89.31
22069;DHT22;13887;57.196;-2.100;2023-03-22T00:25:58;9.94;89.26
22069;DHT22;13887;57.196;-2.100;2023-03-22T00:28:25;9.94;89.28
22069;DHT22;13887;57.196;-2.100;2023-03-22T00:30:57;9.92;89.29
22069;DHT22;13887;57.196;-2.100;2023-03-22T00:33:29;9.91;89.19
22069;DHT22;13887;57.196;-2.100;2023-03-22T00:36:05;9.88;89.31
22069;DHT22;13887;57.196;-2.100;2023-03-22T00:38:33;9.86;89.24
22069;DHT22;13887;57.196;-2.100;2023-03-22T00:41:16;9.89;89.23
22069;DHT22;13887;57.196;-2.100;2023-03-22T00:43:44;9.89;89.27
22069;DHT22;13887;57.196;-2.100;2023-03-22T00:46:13;9.86;89.13
22069;DHT22;13887;57.196;-2.100;2023-03-22T00:48:41;9.89;89.16
22069;DHT22;13887;57.196;-2.100;2023-03-22T00:51:08;9.85;89.23
22069;DHT22;13887;57.196;-2.100;2023-03-22T00:53:37;9.85;89.18
22069;DHT22;13887;57.196;-2.100;2023-03-22T00:56:10;9.85;89.00
22069;DHT22;13887;57.196;-2.100;2023-03-22T00:59:03;9.84;88.91
22069;DHT22;13887;57.196;-2.100;2023-03-22T01:01:30;9.81;89.02
22069;DHT22;13887;57.196;-2.100;2023-03-22T01:03:57;9.83;89.02
22069;DHT22;13887;57.196;-2.100;2023-03-22T01:06:24;9.82;88.93
22069;DHT22;13887;57.196;-2.100;2023-03-22T01:08:51;9.81;88.86
22069;DHT22;13887;57.196;-2.100;2023-03-22T01:11:21;9.81;88.76
22069;DHT22;13887;57.196;-2.100;2023-03-22T01:13:48;9.79;88.86
22069;DHT22;13887;57.196;-2.100;2023-03-22T01:16:16;9.78;88.70
22069;DHT22;13887;57.196;-2.100;2023-03-22T01:18:43;9.79;88.80
22069;DHT22;13887;57.196;-2.100;2023-03-22T01:21:10;9.77;88.76
22069;DHT22;13887;57.196;-2.100;2023-03-22T01:23:37;9.77;88.76
22069;DHT22;13887;57.196;-2.100;2023-03-22T01:26:05;9.77;88.76
22069;DHT22;13887;57.196;-2.100;2023-03-22T01:28:32;9.77;88.75
22069;DHT22;13887;57.196;-2.100;2023-03-22T01:31:02;9.77;88.75
22069;DHT22;13887;57.196;-2.100;2023-03-22T01:33:30;9.75;88.84
22069;DHT22;13887;57.196;-2.100;2023-03-22T01:35:57;9.74;88.88
22069;DHT22;13887;57.196;-2.100;2023-03-22T01:38:26;9.72;88.83
22069;DHT22;13887;57.196;-2.100;2023-03-22T01:40:57;9.72;88.60
22069;DHT22;13887;57.196;-2.100;2023-03-22T01:43:26;9.72;88.76
22069;DHT22;13887;57.196;-2.100;2023-03-22T01:45:55;9.72;88.60
22069;DHT22;13887;57.196;-2.100;2023-03-22T01:51:16;9.72;88.62
22069;DHT22;13887;57.196;-2.100;2023-03-22T01:54:06;9.70;88.69
22069;DHT22;13887;57.196;-2.100;2023-03-22T01:56:38;9.71;88.80
22069;DHT22;13887;57.196;-2.100;2023-03-22T01:59:10;9.70;88.75
22069;DHT22;13887;57.196;-2.100;2023-03-22T02:02:03;9.71;88.71
22069;DHT22;13887;57.196;-2.100;2023-03-22T02:04:34;9.71;88.65
22069;DHT22;13887;57.196;-2.100;2023-03-22T02:07:09;9.70;88.75
22069;DHT22;13887;57.196;-2.100;2023-03-22T02:09:44;9.68;88.70
22069;DHT22;13887;57.196;-2.100;2023-03-22T02:12:40;9.71;88.74
22069;DHT22;13887;57.196;-2.100;2023-03-22T02:15:36;9.66;88.91
22069;DHT22;13887;57.196;-2.100;2023-03-22T02:18:39;9.66;88.87
22069;DHT22;13887;57.196;-2.100;2023-03-22T02:47:04;9.62;88.73
22069;DHT22;13887;57.196;-2.100;2023-03-22T02:49:45;9.63;88.78
22069;DHT22;13887;57.196;-2.100;2023-03-22T02:52:26;9.64;88.58
22069;DHT22;13887;57.196;-2.100;2023-03-22T02:55:14;9.64;88.76
22069;DHT22;13887;57.196;-2.100;2023-03-22T02:57:49;9.59;89.02
22069;DHT22;13887;57.196;-2.100;2023-03-22T03:00:18;9.64;88.81
22069;DHT22;13887;57.196;-2.100;2023-03-22T03:02:55;9.62;88.71
22069;DHT22;13887;57.196;-2.100;2023-03-22T03:05:27;9.62;88.73
22069;DHT22;13887;57.196;-2.100;2023-03-22T03:07:59;9.60;88.72
22069;DHT22;13887;57.196;-2.100;2023-03-22T03:10:30;9.61;88.72
22069;DHT22;13887;57.196;-2.100;2023-03-22T03:12:59;9.60;88.87
22069;DHT22;13887;57.196;-2.100;2023-03-22T03:15:26;9.61;88.88
22069;DHT22;13887;57.196;-2.100;2023-03-22T03:18:09;9.57;88.98
22069;DHT22;13887;57.196;-2.100;2023-03-22T03:20:47;9.57;88.76
22069;DHT22;13887;57.196;-2.100;2023-03-22T03:23:29;9.56;88.81
22069;DHT22;13887;57.196;-2.100;2023-03-22T03:26:38;9.59;88.66
22069;DHT22;13887;57.196;-2.100;2023-03-22T03:29:15;9.59;88.90
22069;DHT22;13887;57.196;-2.100;2023-03-22T03:31:53;9.57;88.86
22069;DHT22;13887;57.196;-2.100;2023-03-22T03:34:29;9.55;88.89
22069;DHT22;13887;57.196;-2.100;2023-03-22T03:37:08;9.56;88.93
22069;DHT22;13887;57.196;-2.100;2023-03-22T03:39:41;9.54;88.95
22069;DHT22;13887;57.196;-2.100;2023-03-22T03:42:14;9.54;89.05
22069;DHT22;13887;57.196;-2.100;2023-03-22T03:44:42;9.55;88.86
22069;DHT22;13887;57.196;-2.100;2023-03-22T03:47:10;9.59;88.80
22069;DHT22;13887;57.196;-2.100;2023-03-22T03:49:38;9.57;88.75
22069;DHT22;13887;57.196;-2.100;2023-03-22T03:52:05;9.59;88.75
22069;DHT22;13887;57.196;-2.100;2023-03-22T03:54:32;9.59;88.74
22069;DHT22;13887;57.196;-2.100;2023-03-22T03:57:00;9.57;88.70
22069;DHT22;13887;57.196;-2.100;2023-03-22T03:59:29;9.56;88.66
22069;DHT22;13887;57.196;-2.100;2023-03-22T04:01:59;9.59;88.59
22069;DHT22;13887;57.196;-2.100;2023-03-22T04:04:29;9.55;88.75
22069;DHT22;13887;57.196;-2.100;2023-03-22T04:07:01;9.56;88.80
22069;DHT22;13887;57.196;-2.100;2023-03-22T04:09:31;9.57;88.75
22069;DHT22;13887;57.196;-2.100;2023-03-22T04:12:12;9.57;88.76
22069;DHT22;13887;57.196;-2.100;2023-03-22T04:14:42;9.56;88.76
22069;DHT22;13887;57.196;-2.100;2023-03-22T04:17:18;9.59;88.86
22069;DHT22;13887;57.196;-2.100;2023-03-22T04:19:45;9.60;89.08
22069;DHT22;13887;57.196;-2.100;2023-03-22T04:22:12;9.56;89.01
22069;DHT22;13887;57.196;-2.100;2023-03-22T04:24:40;9.59;89.01
22069;DHT22;13887;57.196;-2.100;2023-03-22T04:27:07;9.53;89.15
22069;DHT22;13887;57.196;-2.100;2023-03-22T04:29:48;9.55;89.13
22069;DHT22;13887;57.196;-2.100;2023-03-22T04:32:36;9.54;89.34
22069;DHT22;13887;57.196;-2.100;2023-03-22T04:35:04;9.53;89.43
22069;DHT22;13887;57.196;-2.100;2023-03-22T04:37:32;9.52;89.64
22069;DHT22;13887;57.196;-2.100;2023-03-22T04:40:19;9.54;89.66
22069;DHT22;13887;57.196;-2.100;2023-03-22T04:42:53;9.52;89.66
22069;DHT22;13887;57.196;-2.100;2023-03-22T04:45:42;9.55;89.66
22069;DHT22;13887;57.196;-2.100;2023-03-22T04:48:12;9.54;89.73
22069;DHT22;13887;57.196;-2.100;2023-03-22T04:50:39;9.54;89.63
22069;DHT22;13887;57.196;-2.100;2023-03-22T04:53:07;9.53;89.66
22069;DHT22;13887;57.196;-2.100;2023-03-22T04:55:34;9.55;89.73
22069;DHT22;13887;57.196;-2.100;2023-03-22T04:58:01;9.52;89.82
22069;DHT22;13887;57.196;-2.100;2023-03-22T05:00:28;9.55;89.60
22069;DHT22;13887;57.196;-2.100;2023-03-22T05:02:57;9.55;89.73
22069;DHT22;13887;57.196;-2.100;2023-03-22T05:08:20;9.52;89.60
22069;DHT22;13887;57.196;-2.100;2023-03-22T05:10:48;9.53;89.54
22069;DHT22;13887;57.196;-2.100;2023-03-22T05:13:15;9.51;89.83
22069;DHT22;13887;57.196;-2.100;2023-03-22T05:15:44;9.49;89.87
22069;DHT22;13887;57.196;-2.100;2023-03-22T05:18:15;9.50;89.94
22069;DHT22;13887;57.196;-2.100;2023-03-22T05:20:43;9.51;89.77
22069;DHT22;13887;57.196;-2.100;2023-03-22T05:23:17;9.54;89.60
22069;DHT22;13887;57.196;-2.100;2023-03-22T05:25:49;9.54;89.59
22069;DHT22;13887;57.196;-2.100;2023-03-22T05:28:17;9.56;89.60
22069;DHT22;13887;57.196;-2.100;2023-03-22T05:30:55;9.55;89.56
22069;DHT22;13887;57.196;-2.100;2023-03-22T05:33:52;9.53;89.67
22069;DHT22;13887;57.196;-2.100;2023-03-22T05:36:22;9.51;89.84
22069;DHT22;13887;57.196;-2.100;2023-03-22T05:39:09;9.52;89.87
22069;DHT22;13887;57.196;-2.100;2023-03-22T05:41:36;9.52;89.90
22069;DHT22;13887;57.196;-2.100;2023-03-22T05:44:04;9.52;89.83
22069;DHT22;13887;57.196;-2.100;2023-03-22T05:46:34;9.50;89.88
22069;DHT22;13887;57.196;-2.100;2023-03-22T05:49:23;9.51;89.81
22069;DHT22;13887;57.196;-2.100;2023-03-22T05:51:53;9.51;90.18
22069;DHT22;13887;57.196;-2.100;2023-03-22T05:54:22;9.52;89.88
22069;DHT22;13887;57.196;-2.100;2023-03-22T05:56:49;9.50;89.88
22069;DHT22;13887;57.196;-2.100;2023-03-22T05:59:20;9.51;89.63
22069;DHT22;13887;57.196;-2.100;2023-03-22T06:01:47;9.51;89.49
22069;DHT22;13887;57.196;-2.100;2023-03-22T06:04:21;9.52;89.43
22069;DHT22;13887;57.196;-2.100;2023-03-22T06:07:01;9.51;89.32
22069;DHT22;13887;57.196;-2.100;2023-03-22T06:09:51;9.49;89.20
22069;DHT22;13887;57.196;-2.100;2023-03-22T06:12:21;9.49;88.89
22069;DHT22;13887;57.196;-2.100;2023-03-22T06:15:00;9.46;88.59
22069;DHT22;13887;57.196;-2.100;2023-03-22T06:17:34;9.45;88.12
22069;DHT22;13887;57.196;-2.100;2023-03-22T06:20:03;9.46;87.99
22069;DHT22;13887;57.196;-2.100;2023-03-22T06:22:40;9.45;87.81
22069;DHT22;13887;57.196;-2.100;2023-03-22T06:25:08;9.41;87.67
22069;DHT22;13887;57.196;-2.100;2023-03-22T06:27:39;9.39;87.35
22069;DHT22;13887;57.196;-2.100;2023-03-22T06:30:08;9.40;87.32
22069;DHT22;13887;57.196;-2.100;2023-03-22T06:32:48;9.36;87.01
22069;DHT22;13887;57.196;-2.100;2023-03-22T06:35:16;9.35;87.14
22069;DHT22;13887;57.196;-2.100;2023-03-22T06:37:44;9.34;86.70
22069;DHT22;13887;57.196;-2.100;2023-03-22T06:40:11;9.33;86.89
22069;DHT22;13887;57.196;-2.100;2023-03-22T06:42:38;9.34;86.57
22069;DHT22;13887;57.196;-2.100;2023-03-22T06:45:10;9.32;86.48
22069;DHT22;13887;57.196;-2.100;2023-03-22T06:47:43;9.31;86.38
22069;DHT22;13887;57.196;-2.100;2023-03-22T06:50:20;9.30;86.30
22069;DHT22;13887;57.196;-2.100;2023-03-22T06:53:02;9.29;86.25
22069;DHT22;13887;57.196;-2.100;2023-03-22T06:55:29;9.27;86.07
22069;DHT22;13887;57.196;-2.100;2023-03-22T06:58:09;9.26;85.96
22069;DHT22;13887;57.196;-2.100;2023-03-22T07:00:36;9.26;85.75
22069;DHT22;13887;57.196;-2.100;2023-03-22T07:03:06;9.24;85.58
22069;DHT22;13887;57.196;-2.100;2023-03-22T07:05:45;9.23;85.26
22069;DHT22;13887;57.196;-2.100;2023-03-22T07:08:12;9.23;85.37
22069;DHT22;13887;57.196;-2.100;2023-03-22T07:10:49;9.22;85.10
22069;DHT22;13887;57.196;-2.100;2023-03-22T07:13:20;9.21;84.38
22069;DHT22;13887;57.196;-2.100;2023-03-22T07:15:48;9.20;84.68
22069;DHT22;13887;57.196;-2.100;2023-03-22T07:18:29;9.19;84.48
22069;DHT22;13887;57.196;-2.100;2023-03-22T07:20:56;9.22;84.30
22069;DHT22;13887;57.196;-2.100;2023-03-22T07:23:23;9.20;84.65
22069;DHT22;13887;57.196;-2.100;2023-03-22T07:25:52;9.19;84.50
22069;DHT22;13887;57.196;-2.100;2023-03-22T07:28:26;9.19;84.58
22069;DHT22;13887;57.196;-2.100;2023-03-22T07:31:02;9.19;84.40
22069;DHT22;13887;57.196;-2.100;2023-03-22T07:33:40;9.18;84.30
22069;DHT22;13887;57.196;-2.100;2023-03-22T07:36:08;9.18;84.23
22069;DHT22;13887;57.196;-2.100;2023-03-22T07:38:36;9.17;84.07
22069;DHT22;13887;57.196;-2.100;2023-03-22T07:41:07;9.16;83.89
22069;DHT22;13887;57.196;-2.100;2023-03-22T07:43:57;9.15;83.77
22069;DHT22;13887;57.196;-2.100;2023-03-22T07:46:49;9.14;83.85
22069;DHT22;13887;57.196;-2.100;2023-03-22T07:49:21;9.15;83.96
22069;DHT22;13887;57.196;-2.100;2023-03-22T07:52:05;9.12;83.88
22069;DHT22;13887;57.196;-2.100;2023-03-22T07:54:33;9.12;83.23
22069;DHT22;13887;57.196;-2.100;2023-03-22T07:57:02;9.17;83.39
22069;DHT22;13887;57.196;-2.100;2023-03-22T07:59:34;9.11;83.34
22069;DHT22;13887;57.196;-2.100;2023-03-22T08:02:02;9.10;83.58
22069;DHT22;13887;57.196;-2.100;2023-03-22T08:04:36;9.12;83.47
22069;DHT22;13887;57.196;-2.100;2023-03-22T08:07:25;8.57;79.74
22069;DHT22;13887;57.196;-2.100;2023-03-22T08:09:53;8.71;78.80
22069;DHT22;13887;57.196;-2.100;2023-03-22T08:12:20;8.87;80.58
22069;DHT22;13887;57.196;-2.100;2023-03-22T08:14:54;8.93;80.79
22069;DHT22;13887;57.196;-2.100;2023-03-22T08:17:24;8.96;81.05
22069;DHT22;13887;57.196;-2.100;2023-03-22T08:19:51;8.97;81.10
22069;DHT22;13887;57.196;-2.100;2023-03-22T08:22:31;8.97;81.99
22069;DHT22;13887;57.196;-2.100;2023-03-22T08:25:16;9.00;81.49
22069;DHT22;13887;57.196;-2.100;2023-03-22T08:27:43;8.96;81.48
22069;DHT22;13887;57.196;-2.100;2023-03-22T08:30:11;9.01;81.58
22069;DHT22;13887;57.196;-2.100;2023-03-22T08:32:39;8.92;81.10
22069;DHT22;13887;57.196;-2.100;2023-03-22T08:35:07;8.96;81.14
22069;DHT22;13887;57.196;-2.100;2023-03-22T08:37:35;8.98;81.32
22069;DHT22;13887;57.196;-2.100;2023-03-22T08:40:05;8.97;80.81
22069;DHT22;13887;57.196;-2.100;2023-03-22T08:42:49;8.97;81.34
22069;DHT22;13887;57.196;-2.100;2023-03-22T08:45:16;8.97;80.76
22069;DHT22;13887;57.196;-2.100;2023-03-22T08:47:50;8.91;79.89
22069;DHT22;13887;57.196;-2.100;2023-03-22T08:50:21;8.96;79.75
22069;DHT22;13887;57.196;-2.100;2023-03-22T08:52:56;8.94;80.21
22069;DHT22;13887;57.196;-2.100;2023-03-22T08:55:26;8.93;80.35
22069;DHT22;13887;57.196;-2.100;2023-03-22T08:58:12;8.94;80.62
22069;DHT22;13887;57.196;-2.100;2023-03-22T09:00:48;8.95;80.33
22069;DHT22;13887;57.196;-2.100;2023-03-22T09:03:31;8.93;81.03
22069;DHT22;13887;57.196;-2.100;2023-03-22T09:05:58;8.93;80.96
22069;DHT22;13887;57.196;-2.100;2023-03-22T09:08:28;8.93;81.12
22069;DHT22;13887;57.196;-2.100;2023-03-22T09:11:07;8.91;81.10
22069;DHT22;13887;57.196;-2.100;2023-03-22T09:13:34;8.92;81.48
22069;DHT22;13887;57.196;-2.100;2023-03-22T09:16:03;8.92;80.73
22069;DHT22;13887;57.196;-2.100;2023-03-22T09:18:31;8.89;80.11
22069;DHT22;13887;57.196;-2.100;2023-03-22T09:21:02;8.91;79.95
22069;DHT22;13887;57.196;-2.100;2023-03-22T09:23:39;8.94;80.45
22069;DHT22;13887;57.196;-2.100;2023-03-22T09:26:09;8.96;79.65
22069;DHT22;13887;57.196;-2.100;2023-03-22T09:28:38;8.93;78.65
22069;DHT22;13887;57.196;-2.100;2023-03-22T09:31:08;8.93;80.70
22069;DHT22;13887;57.196;-2.100;2023-03-22T09:33:38;8.96;80.85
22069;DHT22;13887;57.196;-2.100;2023-03-22T09:36:08;8.93;79.11
22069;DHT22;13887;57.196;-2.100;2023-03-22T09:38:37;8.94;80.00
22069;DHT22;13887;57.196;-2.100;2023-03-22T09:41:16;8.97;79.73
22069;DHT22;13887;57.196;-2.100;2023-03-22T09:43:53;8.94;79.01
22069;DHT22;13887;57.196;-2.100;2023-03-22T09:46:36;8.96;79.53
22069;DHT22;13887;57.196;-2.100;2023-03-22T09:49:09;8.98;79.52
22069;DHT22;13887;57.196;-2.100;2023-03-22T09:51:44;9.00;79.44
22069;DHT22;13887;57.196;-2.100;2023-03-22T09:54:15;8.98;79.07
22069;DHT22;13887;57.196;-2.100;2023-03-22T09:57:07;8.98;79.49
22069;DHT22;13887;57.196;-2.100;2023-03-22T10:02:54;9.00;78.96
22069;DHT22;13887;57.196;-2.100;2023-03-22T10:05:35;9.02;79.24
22069;DHT22;13887;57.196;-2.100;2023-03-22T10:08:13;9.04;78.47
22069;DHT22;13887;57.196;-2.100;2023-03-22T10:10:43;9.05;78.50
22069;DHT22;13887;57.196;-2.100;2023-03-22T10:13:15;9.07;78.91
22069;DHT22;13887;57.196;-2.100;2023-03-22T10:15:55;9.09;78.88
22069;DHT22;13887;57.196;-2.100;2023-03-22T10:18:39;9.10;77.89
22069;DHT22;13887;57.196;-2.100;2023-03-22T10:21:14;9.09;77.81
22069;DHT22;13887;57.196;-2.100;2023-03-22T10:23:58;9.09;78.03
22069;DHT22;13887;57.196;-2.100;2023-03-22T10:26:30;9.14;77.86
22069;DHT22;13887;57.196;-2.100;2023-03-22T10:29:03;9.14;77.69
22069;DHT22;13887;57.196;-2.100;2023-03-22T10:31:31;9.16;77.80
22069;DHT22;13887;57.196;-2.100;2023-03-22T10:34:10;9.14;76.36
22069;DHT22;13887;57.196;-2.100;2023-03-22T10:36:43;9.16;76.68
22069;DHT22;13887;57.196;-2.100;2023-03-22T10:39:12;9.18;76.83
22069;DHT22;13887;57.196;-2.100;2023-03-22T10:41:43;9.19;76.23
22069;DHT22;13887;57.196;-2.100;2023-03-22T10:44:15;9.19;76.61
22069;DHT22;13887;57.196;-2.100;2023-03-22T10:46:44;9.20;77.30
22069;DHT22;13887;57.196;-2.100;2023-03-22T10:49:27;9.23;76.54
22069;DHT22;13887;57.196;-2.100;2023-03-22T10:51:58;9.20;76.25
22069;DHT22;13887;57.196;-2.100;2023-03-22T10:54:28;9.21;76.86
22069;DHT22;13887;57.196;-2.100;2023-03-22T10:56:57;9.23;77.59
22069;DHT22;13887;57.196;-2.100;2023-03-22T10:59:44;9.23;77.53
22069;DHT22;13887;57.196;-2.100;2023-03-22T11:02:31;9.22;77.35
22069;DHT22;13887;57.196;-2.100;2023-03-22T11:05:03;9.23;76.89
22069;DHT22;13887;57.196;-2.100;2023-03-22T11:07:32;9.22;78.02
22069;DHT22;13887;57.196;-2.100;2023-03-22T11:10:18;9.23;77.76
22069;DHT22;13887;57.196;-2.100;2023-03-22T11:12:54;9.23;77.33
22069;DHT22;13887;57.196;-2.100;2023-03-22T11:17:49;9.26;77.24
22069;DHT22;13887;57.196;-2.100;2023-03-22T11:20:18;9.27;76.80
22069;DHT22;13887;57.196;-2.100;2023-03-22T11:22:47;9.32;77.46
22069;DHT22;13887;57.196;-2.100;2023-03-22T11:25:44;9.37;76.55
22069;DHT22;13887;57.196;-2.100;2023-03-22T11:28:21;9.36;77.40
22069;DHT22;13887;57.196;-2.100;2023-03-22T11:33:27;9.40;77.04
22069;DHT22;13887;57.196;-2.100;2023-03-22T11:35:59;9.41;77.28
22069;DHT22;13887;57.196;-2.100;2023-03-22T11:38:38;9.45;74.89
22069;DHT22;13887;57.196;-2.100;2023-03-22T11:43:44;9.52;75.59
22069;DHT22;13887;57.196;-2.100;2023-03-22T11:46:16;9.51;75.23
22069;DHT22;13887;57.196;-2.100;2023-03-22T11:48:49;9.54;74.15
22069;DHT22;13887;57.196;-2.100;2023-03-22T11:51:28;9.59;74.31
22069;DHT22;13887;57.196;-2.100;2023-03-22T11:56:44;9.62;74.54
22069;DHT22;13887;57.196;-2.100;2023-03-22T11:59:15;9.68;75.73
22069;DHT22;13887;57.196;-2.100;2023-03-22T12:01:50;9.69;74.37
22069;DHT22;13887;57.196;-2.100;2023-03-22T12:04:23;9.69;75.44
22069;DHT22;13887;57.196;-2.100;2023-03-22T12:06:56;9.70;74.60
22069;DHT22;13887;57.196;-2.100;2023-03-22T12:09:43;9.74;75.91
22069;DHT22;13887;57.196;-2.100;2023-03-22T12:12:20;9.77;75.67
22069;DHT22;13887;57.196;-2.100;2023-03-22T12:14:53;9.77;76.31
22069;DHT22;13887;57.196;-2.100;2023-03-22T12:23:15;9.81;75.02
22069;DHT22;13887;57.196;-2.100;2023-03-22T12:25:50;9.83;75.31
22069;DHT22;13887;57.196;-2.100;2023-03-22T12:28:22;9.84;75.25
22069;DHT22;13887;57.196;-2.100;2023-03-22T12:30:53;9.86;75.11
22069;DHT22;13887;57.196;-2.100;2023-03-22T12:35:59;9.89;76.60
22069;DHT22;13887;57.196;-2.100;2023-03-22T12:38:40;9.95;75.44
22069;DHT22;13887;57.196;-2.100;2023-03-22T12:41:28;9.96;75.80
22069;DHT22;13887;57.196;-2.100;2023-03-22T12:44:01;9.93;75.42
22069;DHT22;13887;57.196;-2.100;2023-03-22T12:46:40;9.93;76.05
22069;DHT22;13887;57.196;-2.100;2023-03-22T12:51:53;9.98;75.76
22069;DHT22;13887;57.196;-2.100;2023-03-22T12:54:23;9.96;75.08
22069;DHT22;13887;57.196;-2.100;2023-03-22T12:56:51;9.96;74.41
22069;DHT22;13887;57.196;-2.100;2023-03-22T12:59:23;9.95;74.96
22069;DHT22;13887;57.196;-2.100;2023-03-22T13:09:47;9.98;75.44
22069;DHT22;13887;57.196;-2.100;2023-03-22T13:27:54;10.01;76.37
22069;DHT22;13887;57.196;-2.100;2023-03-22T13:30:34;10.10;74.30
22069;DHT22;13887;57.196;-2.100;2023-03-22T13:35:44;10.08;75.63
22069;DHT22;13887;57.196;-2.100;2023-03-22T13:38:28;10.07;75.41
22069;DHT22;13887;57.196;-2.100;2023-03-22T13:41:03;10.11;75.24
22069;DHT22;13887;57.196;-2.100;2023-03-22T13:54:16;10.16;75.51
22069;DHT22;13887;57.196;-2.100;2023-03-22T13:56:55;10.18;75.02
22069;DHT22;13887;57.196;-2.100;2023-03-22T14:02:07;10.19;75.74
22069;DHT22;13887;57.196;-2.100;2023-03-22T14:04:52;10.20;76.11
22069;DHT22;13887;57.196;-2.100;2023-03-22T14:07:49;10.21;75.55
22069;DHT22;13887;57.196;-2.100;2023-03-22T14:10:30;10.22;75.90
22069;DHT22;13887;57.196;-2.100;2023-03-22T14:13:04;10.21;74.51
22069;DHT22;13887;57.196;-2.100;2023-03-22T14:15:41;10.22;75.34
22069;DHT22;13887;57.196;-2.100;2023-03-22T14:18:28;10.24;75.63
22069;DHT22;13887;57.196;-2.100;2023-03-22T14:21:04;10.28;75.61
22069;DHT22;13887;57.196;-2.100;2023-03-22T14:23:35;10.26;76.44
22069;DHT22;13887;57.196;-2.100;2023-03-22T14:26:11;10.22;76.55
22069;DHT22;13887;57.196;-2.100;2023-03-22T14:28:38;10.22;76.38
22069;DHT22;13887;57.196;-2.100;2023-03-22T14:31:16;10.26;75.18
22069;DHT22;13887;57.196;-2.100;2023-03-22T14:33:43;10.25;72.80
22069;DHT22;13887;57.196;-2.100;2023-03-22T14:36:12;10.28;74.89
22069;DHT22;13887;57.196;-2.100;2023-03-22T14:38:40;10.25;74.09
22069;DHT22;13887;57.196;-2.100;2023-03-22T14:41:19;10.24;73.37
22069;DHT22;13887;57.196;-2.100;2023-03-22T14:43:48;10.19;73.12
22069;DHT22;13887;57.196;-2.100;2023-03-22T14:46:18;10.20;74.12
22069;DHT22;13887;57.196;-2.100;2023-03-22T14:48:55;10.25;71.78
22069;DHT22;13887;57.196;-2.100;2023-03-22T14:51:30;10.24;72.19
22069;DHT22;13887;57.196;-2.100;2023-03-22T14:53:58;10.21;73.00
22069;DHT22;13887;57.196;-2.100;2023-03-22T14:56:36;10.18;73.24
22069;DHT22;13887;57.196;-2.100;2023-03-22T14:59:09;10.15;73.64
22069;DHT22;13887;57.196;-2.100;2023-03-22T15:01:39;10.14;73.57
22069;DHT22;13887;57.196;-2.100;2023-03-22T15:04:09;10.11;73.46
22069;DHT22;13887;57.196;-2.100;2023-03-22T15:06:56;10.10;74.07
22069;DHT22;13887;57.196;-2.100;2023-03-22T15:09:23;10.14;73.41
22069;DHT22;13887;57.196;-2.100;2023-03-22T15:11:54;10.14;73.51
22069;DHT22;13887;57.196;-2.100;2023-03-22T15:14:21;10.12;73.93
22069;DHT22;13887;57.196;-2.100;2023-03-22T15:16:47;10.10;74.98
22069;DHT22;13887;57.196;-2.100;2023-03-22T15:19:17;10.16;74.78
22069;DHT22;13887;57.196;-2.100;2023-03-22T15:21:44;10.15;74.83
22069;DHT22;13887;57.196;-2.100;2023-03-22T15:24:27;10.18;74.18
22069;DHT22;13887;57.196;-2.100;2023-03-22T15:26:53;10.22;74.82
22069;DHT22;13887;57.196;-2.100;2023-03-22T15:29:24;10.19;74.67
22069;DHT22;13887;57.196;-2.100;2023-03-22T15:31:55;10.16;75.66
22069;DHT22;13887;57.196;-2.100;2023-03-22T15:34:24;10.16;73.90
22069;DHT22;13887;57.196;-2.100;2023-03-22T15:36:50;10.19;75.12
22069;DHT22;13887;57.196;-2.100;2023-03-22T15:39:21;10.21;75.28
22069;DHT22;13887;57.196;-2.100;2023-03-22T15:41:55;10.20;75.71
22069;DHT22;13887;57.196;-2.100;2023-03-22T15:46:58;10.26;75.80
22069;DHT22;13887;57.196;-2.100;2023-03-22T15:49:29;10.26;76.58
22069;DHT22;13887;57.196;-2.100;2023-03-22T15:52:20;10.26;76.11
22069;DHT22;13887;57.196;-2.100;2023-03-22T15:55:09;10.24;76.14
22069;DHT22;13887;57.196;-2.100;2023-03-22T16:03:10;10.22;76.68
22069;DHT22;13887;57.196;-2.100;2023-03-22T16:05:41;10.24;76.44
22069;DHT22;13887;57.196;-2.100;2023-03-22T16:08:10;10.23;76.50
22069;DHT22;13887;57.196;-2.100;2023-03-22T16:10:37;10.25;76.05
22069;DHT22;13887;57.196;-2.100;2023-03-22T16:13:21;10.29;75.97
22069;DHT22;13887;57.196;-2.100;2023-03-22T16:15:49;10.29;76.31
22069;DHT22;13887;57.196;-2.100;2023-03-22T16:18:19;10.30;75.52
22069;DHT22;13887;57.196;-2.100;2023-03-22T16:20:47;10.28;75.45
22069;DHT22;13887;57.196;-2.100;2023-03-22T16:23:17;10.26;74.92
22069;DHT22;13887;57.196;-2.100;2023-03-22T16:25:44;10.25;75.15
22069;DHT22;13887;57.196;-2.100;2023-03-22T16:28:10;10.25;74.96
22069;DHT22;13887;57.196;-2.100;2023-03-22T16:30:39;10.28;74.60
22069;DHT22;13887;57.196;-2.100;2023-03-22T16:33:09;10.24;75.62
22069;DHT22;13887;57.196;-2.100;2023-03-22T16:35:35;10.22;76.24
22069;DHT22;13887;57.196;-2.100;2023-03-22T16:38:01;10.19;76.61
22069;DHT22;13887;57.196;-2.100;2023-03-22T16:40:28;10.19;76.17
22069;DHT22;13887;57.196;-2.100;2023-03-22T16:42:58;10.24;75.42
22069;DHT22;13887;57.196;-2.100;2023-03-22T16:45:28;10.22;76.58
22069;DHT22;13887;57.196;-2.100;2023-03-22T16:47:55;10.19;75.49
22069;DHT22;13887;57.196;-2.100;2023-03-22T16:50:23;10.19;76.09
22069;DHT22;13887;57.196;-2.100;2023-03-22T16:52:50;10.20;75.67
22069;DHT22;13887;57.196;-2.100;2023-03-22T16:55:19;10.24;74.63
22069;DHT22;13887;57.196;-2.100;2023-03-22T16:57:45;10.21;74.57
22069;DHT22;13887;57.196;-2.100;2023-03-22T17:00:12;10.18;75.25
22069;DHT22;13887;57.196;-2.100;2023-03-22T17:02:39;10.18;74.43
22069;DHT22;13887;57.196;-2.100;2023-03-22T17:05:06;10.16;76.09
22069;DHT22;13887;57.196;-2.100;2023-03-22T17:07:33;10.16;75.49
22069;DHT22;13887;57.196;-2.100;2023-03-22T17:10:00;10.16;75.46
22069;DHT22;13887;57.196;-2.100;2023-03-22T17:12:35;10.15;75.24
22069;DHT22;13887;57.196;-2.100;2023-03-22T17:15:03;10.14;74.15
22069;DHT22;13887;57.196;-2.100;2023-03-22T17:17:29;10.12;75.03
22069;DHT22;13887;57.196;-2.100;2023-03-22T17:19:56;10.09;75.35
22069;DHT22;13887;57.196;-2.100;2023-03-22T17:22:24;10.08;75.68
22069;DHT22;13887;57.196;-2.100;2023-03-22T17:24:50;10.09;75.52
22069;DHT22;13887;57.196;-2.100;2023-03-22T17:27:16;10.06;76.13
22069;DHT22;13887;57.196;-2.100;2023-03-22T17:29:42;10.04;76.53
22069;DHT22;13887;57.196;-2.100;2023-03-22T17:32:11;10.04;75.59
22069;DHT22;13887;57.196;-2.100;2023-03-22T17:34:39;10.05;75.76
22069;DHT22;13887;57.196;-2.100;2023-03-22T17:37:05;10.03;75.54
22069;DHT22;13887;57.196;-2.100;2023-03-22T17:39:33;10.03;76.31
22069;DHT22;13887;57.196;-2.100;2023-03-22T17:42:03;10.01;76.32
22069;DHT22;13887;57.196;-2.100;2023-03-22T17:44:29;10.01;76.25
22069;DHT22;13887;57.196;-2.100;2023-03-22T17:46:56;10.00;76.61